Time;durP1;ratioP1;P1;durP2;ratioP2;P2;SDS_P1;SDS_P2;PMS_P1;PMS_P2;Temp;Humidity;BMP_temperature;BMP_pressure;BME280_temperature;BME280_humidity;BME280_pressure;Samples;Min_cycle;Max_cycle;Signal;HPM_P1;HPM_P2
2023/03/05 00:01:16;;;;;;;10.40;2.10;;;3.60;99.90;;;;;;5004232;28;20485;-77
2023/03/05 00:03:42;;;;;;;8.30;1.50;;;3.80;99.90;;;;;;5013143;28;20427;-77
2023/03/05 00:06:08;;;;;;;8.73;1.52;;;3.70;99.90;;;;;;5012585;28;20459;-77
2023/03/05 00:08:35;;;;;;;7.73;1.37;;;3.80;99.90;;;;;;5022359;28;20451;-77
2023/03/05 00:11:06;;;;;;;11.38;2.90;;;3.50;99.90;;;;;;5004847;28;20442;-78
2023/03/05 00:13:32;;;;;;;10.82;2.65;;;3.60;99.90;;;;;;5005268;28;20945;-77
2023/03/05 00:15:58;;;;;;;7.78;1.55;;;3.60;99.90;;;;;;5007434;28;20424;-78
2023/03/05 00:18:24;;;;;;;9.80;1.60;;;3.50;99.90;;;;;;5007258;28;20761;-78
2023/03/05 00:20:50;;;;;;;5.57;1.70;;;3.60;99.90;;;;;;5006632;28;20801;-79
2023/03/05 00:23:16;;;;;;;7.43;1.70;;;3.80;99.90;;;;;;5023864;28;20443;-79
2023/03/05 00:25:42;;;;;;;8.07;2.70;;;3.80;99.90;;;;;;4989476;28;20437;-79
2023/03/05 00:28:08;;;;;;;9.77;3.00;;;3.70;99.90;;;;;;5006125;28;20424;-77
2023/03/05 00:30:34;;;;;;;10.07;3.05;;;3.80;99.90;;;;;;4988503;28;20451;-78
2023/03/05 00:33:00;;;;;;;7.40;3.33;;;3.70;99.90;;;;;;5004319;28;20436;-78
2023/03/05 00:35:27;;;;;;;12.00;3.93;;;3.80;99.90;;;;;;5000516;28;21087;-79
2023/03/05 00:37:53;;;;;;;11.05;3.60;;;3.80;99.90;;;;;;5005686;28;21079;-77
2023/03/05 00:40:18;;;;;;;9.73;3.43;;;3.80;99.90;;;;;;5004644;28;20963;-80
2023/03/05 00:42:44;;;;;;;7.95;2.70;;;3.80;99.90;;;;;;5005913;28;20454;-79
2023/03/05 00:45:10;;;;;;;9.70;2.60;;;3.80;99.90;;;;;;5008561;28;20499;-77
2023/03/05 00:47:36;;;;;;;8.77;2.67;;;3.90;99.90;;;;;;5008290;28;20440;-79
2023/03/05 00:50:03;;;;;;;7.90;3.37;;;3.70;99.90;;;;;;5010427;28;20416;-77
2023/03/05 00:52:29;;;;;;;15.93;3.22;;;3.70;99.90;;;;;;5005965;28;20433;-77
2023/03/05 00:54:54;;;;;;;10.05;2.90;;;3.70;99.90;;;;;;5008044;28;20432;-76
2023/03/05 00:57:20;;;;;;;11.30;4.22;;;3.60;99.90;;;;;;5009758;28;20540;-78
2023/03/05 00:59:46;;;;;;;7.45;2.05;;;3.70;99.90;;;;;;5005689;28;20425;-77
2023/03/05 01:02:11;;;;;;;11.70;2.40;;;3.50;99.90;;;;;;5008244;28;20795;-77
2023/03/05 01:04:37;;;;;;;12.75;2.65;;;3.50;99.90;;;;;;5008794;28;20519;-79
2023/03/05 01:07:03;;;;;;;5.13;1.65;;;3.30;99.90;;;;;;5007291;28;20436;-79
2023/03/05 01:09:29;;;;;;;11.23;2.10;;;3.30;99.90;;;;;;4991285;28;22704;-78
2023/03/05 01:11:55;;;;;;;9.80;2.90;;;3.50;99.90;;;;;;5009427;28;20828;-78
2023/03/05 01:14:21;;;;;;;10.82;3.22;;;3.50;99.90;;;;;;5021592;28;20803;-77
2023/03/05 01:16:47;;;;;;;7.38;1.40;;;3.50;99.90;;;;;;5008599;28;20464;-78
2023/03/05 01:19:14;;;;;;;8.30;1.70;;;3.50;99.90;;;;;;5008875;28;20432;-78
2023/03/05 01:21:40;;;;;;;8.95;1.98;;;3.40;99.90;;;;;;4995539;28;20459;-78
2023/03/05 01:24:07;;;;;;;8.20;1.60;;;3.40;99.90;;;;;;5009243;28;20423;-78
2023/03/05 01:26:32;;;;;;;5.63;1.35;;;3.50;99.90;;;;;;5023317;28;20437;-77
2023/03/05 01:28:59;;;;;;;6.50;2.10;;;3.40;99.90;;;;;;5025097;28;20555;-77
2023/03/05 01:31:25;;;;;;;9.10;1.60;;;3.30;99.90;;;;;;5006300;28;20440;-77
2023/03/05 01:33:52;;;;;;;6.10;1.20;;;3.40;99.90;;;;;;5008435;28;20420;-76
2023/03/05 01:36:18;;;;;;;8.15;2.20;;;3.40;99.90;;;;;;5005266;28;20456;-79
2023/03/05 01:38:45;;;;;;;7.40;1.80;;;3.30;99.90;;;;;;5002396;28;20499;-79
2023/03/05 01:41:13;;;;;;;8.25;1.90;;;3.40;99.90;;;;;;5006126;28;20421;-78
2023/03/05 01:43:39;;;;;;;6.80;1.00;;;3.30;99.90;;;;;;5008697;28;20527;-79
2023/03/05 01:46:26;;;;;;;7.50;1.67;;;3.30;99.90;;;;;;5031786;28;20423;-78
2023/03/05 01:49:07;;;;;;;10.20;1.42;;;3.30;99.90;;;;;;5002991;28;20416;-77
2023/03/05 01:51:52;;;;;;;7.35;1.50;;;3.20;99.90;;;;;;4991596;28;20481;-78
2023/03/05 01:54:20;;;;;;;6.00;1.33;;;3.20;99.90;;;;;;5023196;28;20760;-79
2023/03/05 01:56:49;;;;;;;11.05;2.30;;;3.20;99.90;;;;;;5007572;28;20512;-78
2023/03/05 01:59:16;;;;;;;7.60;1.23;;;3.20;99.90;;;;;;5009329;28;20427;-79
2023/03/05 02:01:45;;;;;;;5.30;1.10;;;3.10;99.90;;;;;;5007394;28;20519;-78
2023/03/05 02:04:17;;;;;;;7.75;1.80;;;3.20;99.90;;;;;;5009201;28;20439;-79
2023/03/05 02:06:44;;;;;;;6.28;1.30;;;3.10;99.90;;;;;;5008250;28;20460;-78
2023/03/05 02:09:10;;;;;;;8.32;1.48;;;3.10;99.90;;;;;;5110897;22;20445;-69
2023/03/05 02:11:36;;;;;;;5.20;1.05;;;3.20;99.90;;;;;;5054855;28;20443;-69
2023/03/05 02:14:04;;;;;;;5.63;1.38;;;3.20;99.90;;;;;;5058074;28;20431;-71
2023/03/05 02:16:35;;;;;;;5.10;1.27;;;3.30;99.90;;;;;;5067161;28;20412;-68
2023/03/05 02:19:06;;;;;;;6.03;1.40;;;3.20;99.90;;;;;;5070244;28;20916;-68
2023/03/05 02:21:39;;;;;;;3.92;1.20;;;3.30;99.90;;;;;;5081076;28;20423;-68
2023/03/05 02:24:05;;;;;;;4.68;1.10;;;3.20;99.90;;;;;;5063047;28;20983;-68
2023/03/05 02:26:31;;;;;;;7.13;1.50;;;3.30;99.90;;;;;;5065398;28;20768;-68
2023/03/05 02:29:00;;;;;;;6.72;1.15;;;3.40;99.90;;;;;;5062534;28;20464;-69
2023/03/05 02:31:26;;;;;;;6.35;1.00;;;3.30;99.90;;;;;;5065463;28;20438;-69
2023/03/05 02:33:52;;;;;;;4.70;1.00;;;3.50;99.90;;;;;;5066083;28;20428;-68
2023/03/05 02:36:19;;;;;;;5.50;1.15;;;3.30;99.90;;;;;;5065713;28;20419;-70
2023/03/05 02:38:45;;;;;;;7.05;1.40;;;3.40;99.90;;;;;;5062397;28;20444;-69
2023/03/05 02:41:12;;;;;;;6.93;1.30;;;3.40;99.90;;;;;;5059103;28;20419;-68
2023/03/05 02:43:37;;;;;;;7.80;1.43;;;3.30;99.90;;;;;;5062825;28;20415;-69
2023/03/05 02:46:04;;;;;;;7.30;1.38;;;3.40;99.90;;;;;;5064616;28;20469;-69
2023/03/05 02:48:29;;;;;;;10.25;1.75;;;3.30;99.90;;;;;;5066160;28;20442;-67
2023/03/05 02:50:56;;;;;;;8.98;1.20;;;3.20;99.90;;;;;;5063810;28;20891;-68
2023/03/05 02:53:22;;;;;;;4.93;1.20;;;3.20;99.90;;;;;;5065263;28;20428;-68
2023/03/05 02:55:48;;;;;;;4.47;0.93;;;3.40;99.90;;;;;;5066375;28;20808;-69
2023/03/05 02:58:15;;;;;;;5.33;1.43;;;3.30;99.90;;;;;;5062890;28;20476;-69
2023/03/05 03:00:41;;;;;;;5.65;1.73;;;3.50;99.90;;;;;;5067318;28;20514;-68
2023/03/05 03:03:06;;;;;;;8.80;1.20;;;3.50;99.90;;;;;;5063146;28;20433;-68
2023/03/05 03:05:32;;;;;;;6.47;1.80;;;3.40;99.90;;;;;;5067437;28;20793;-68
2023/03/05 03:07:58;;;;;;;5.53;1.27;;;3.60;99.90;;;;;;5064570;28;20507;-69
2023/03/05 03:10:23;;;;;;;4.70;0.83;;;3.50;99.90;;;;;;5068901;28;20829;-68
2023/03/05 03:12:49;;;;;;;7.57;1.17;;;3.60;99.90;;;;;;5065826;28;20757;-69
2023/03/05 03:15:15;;;;;;;4.00;1.02;;;3.50;99.90;;;;;;5058851;28;20775;-69
2023/03/05 03:17:41;;;;;;;5.18;1.15;;;3.30;99.90;;;;;;5060910;28;20420;-69
2023/03/05 03:20:12;;;;;;;6.10;0.90;;;3.10;99.90;;;;;;5064915;28;20411;-69
2023/03/05 03:22:38;;;;;;;6.30;1.38;;;3.10;99.90;;;;;;5067477;28;20940;-69
2023/03/05 03:25:04;;;;;;;3.30;1.00;;;3.10;99.90;;;;;;5066123;28;20519;-68
2023/03/05 03:27:30;;;;;;;4.45;0.70;;;3.10;99.90;;;;;;5064774;28;20897;-68
2023/03/05 03:29:59;;;;;;;4.55;0.70;;;3.00;99.90;;;;;;5066543;28;20549;-69
2023/03/05 03:32:25;;;;;;;5.30;1.00;;;3.10;99.90;;;;;;5061947;28;20518;-68
2023/03/05 03:34:51;;;;;;;6.77;0.90;;;3.00;99.90;;;;;;5066228;28;20507;-69
2023/03/05 03:37:16;;;;;;;4.10;0.80;;;3.10;99.90;;;;;;5064999;28;20426;-69
2023/03/05 03:39:42;;;;;;;2.60;0.90;;;3.10;99.90;;;;;;5065551;28;20431;-69
2023/03/05 03:42:07;;;;;;;3.97;0.60;;;3.00;99.90;;;;;;5057268;28;21170;-68
2023/03/05 03:44:33;;;;;;;3.57;0.70;;;3.00;99.90;;;;;;5073134;28;20421;-68
2023/03/05 03:46:59;;;;;;;3.97;0.77;;;3.10;99.90;;;;;;5069546;28;20472;-68
2023/03/05 03:49:25;;;;;;;3.50;0.90;;;3.10;99.90;;;;;;5065352;28;20510;-68
2023/03/05 03:51:57;;;;;;;4.60;1.27;;;3.10;99.90;;;;;;5062418;28;20781;-69
2023/03/05 03:54:22;;;;;;;3.60;0.88;;;3.30;99.90;;;;;;5066878;28;20545;-68
2023/03/05 03:56:48;;;;;;;2.97;0.93;;;3.40;99.90;;;;;;5061923;28;20918;-69
2023/03/05 03:59:14;;;;;;;3.67;0.83;;;3.40;99.90;;;;;;5060805;28;20424;-69
2023/03/05 04:01:40;;;;;;;5.67;1.10;;;3.50;99.90;;;;;;5064568;28;20889;-69
2023/03/05 04:04:06;;;;;;;11.55;1.50;;;3.40;99.90;;;;;;5064889;28;20459;-68
2023/03/05 04:06:32;;;;;;;6.82;1.10;;;3.30;99.90;;;;;;5064970;28;20423;-69
2023/03/05 04:08:58;;;;;;;4.55;1.10;;;3.30;99.90;;;;;;5038456;28;20498;-69
2023/03/05 04:11:24;;;;;;;3.50;0.57;;;3.50;99.90;;;;;;5063652;28;20452;-69
2023/03/05 04:13:50;;;;;;;3.38;1.20;;;3.60;99.90;;;;;;5065182;28;20765;-69
2023/03/05 04:16:18;;;;;;;4.25;0.77;;;3.40;99.90;;;;;;5066349;28;20427;-70
2023/03/05 04:18:44;;;;;;;4.88;0.90;;;3.50;99.90;;;;;;5065468;28;20430;-69
2023/03/05 04:21:10;;;;;;;5.63;0.90;;;3.40;99.90;;;;;;5062484;28;20423;-68
2023/03/05 04:23:36;;;;;;;5.63;0.73;;;3.40;99.90;;;;;;5067106;28;20769;-69
2023/03/05 04:26:01;;;;;;;6.55;1.27;;;3.50;99.90;;;;;;5065426;28;20996;-70
2023/03/05 04:28:27;;;;;;;5.25;0.80;;;3.40;99.90;;;;;;5060017;28;20876;-68
2023/03/05 04:30:53;;;;;;;4.13;1.60;;;3.30;99.90;;;;;;5067463;28;20419;-68
2023/03/05 04:33:19;;;;;;;5.25;1.08;;;3.30;99.90;;;;;;5057417;28;20792;-70
2023/03/05 04:35:44;;;;;;;5.82;0.90;;;3.20;99.90;;;;;;5069185;28;20890;-68
2023/03/05 04:38:10;;;;;;;7.00;0.97;;;3.20;99.90;;;;;;5069354;28;20430;-69
2023/03/05 04:40:36;;;;;;;6.93;1.40;;;3.30;99.90;;;;;;5065082;28;20411;-69
2023/03/05 04:43:02;;;;;;;4.65;1.20;;;3.30;99.90;;;;;;5065704;28;20978;-68
2023/03/05 04:45:28;;;;;;;6.95;1.20;;;3.40;99.90;;;;;;5063111;28;20426;-69
2023/03/05 04:47:54;;;;;;;5.45;1.02;;;3.30;99.90;;;;;;5065367;28;20476;-70
2023/03/05 04:50:20;;;;;;;8.25;1.38;;;3.30;99.90;;;;;;5065944;28;20499;-70
2023/03/05 04:52:46;;;;;;;3.43;1.17;;;3.20;99.90;;;;;;5069479;28;20419;-68
2023/03/05 04:55:14;;;;;;;5.60;1.13;;;3.10;99.90;;;;;;5067940;28;20416;-69
2023/03/05 04:57:39;;;;;;;5.80;1.35;;;3.10;99.90;;;;;;5065937;28;20415;-69
2023/03/05 05:00:12;;;;;;;6.18;1.13;;;3.10;99.90;;;;;;5065644;28;20529;-69
2023/03/05 05:02:39;;;;;;;7.40;1.40;;;3.20;99.90;;;;;;5061144;28;20435;-69
2023/03/05 05:05:05;;;;;;;6.82;1.50;;;3.20;99.90;;;;;;5067439;28;20921;-69
2023/03/05 05:07:31;;;;;;;5.43;1.20;;;3.10;99.90;;;;;;5069810;28;20449;-69
2023/03/05 05:09:57;;;;;;;5.25;0.95;;;3.30;99.90;;;;;;5067479;28;20427;-67
2023/03/05 05:12:23;;;;;;;5.78;1.73;;;3.30;99.90;;;;;;5067602;28;20814;-69
2023/03/05 05:14:48;;;;;;;7.28;1.33;;;3.30;99.90;;;;;;5067727;28;20829;-69
2023/03/05 05:17:14;;;;;;;6.70;1.67;;;3.30;99.90;;;;;;5069130;28;20427;-68
2023/03/05 05:19:40;;;;;;;7.22;1.77;;;3.40;99.90;;;;;;5064906;28;20781;-68
2023/03/05 05:22:05;;;;;;;5.47;1.37;;;3.50;99.90;;;;;;5065952;28;20431;-68
2023/03/05 05:24:31;;;;;;;6.87;2.50;;;3.60;99.90;;;;;;5068275;28;20415;-68
2023/03/05 05:26:57;;;;;;;7.03;1.30;;;3.60;99.90;;;;;;5064684;28;20909;-69
2023/03/05 05:29:23;;;;;;;6.00;1.00;;;3.60;99.90;;;;;;5064444;28;20407;-69
2023/03/05 05:31:48;;;;;;;10.27;1.87;;;3.50;99.90;;;;;;5065557;28;20477;-70
2023/03/05 05:34:15;;;;;;;6.13;1.10;;;3.40;99.90;;;;;;5069091;28;20901;-68
2023/03/05 05:36:40;;;;;;;9.93;1.55;;;3.60;99.90;;;;;;5066975;28;20423;-67
2023/03/05 05:39:06;;;;;;;8.00;1.92;;;3.40;99.90;;;;;;5063489;28;20419;-68
2023/03/05 05:41:32;;;;;;;6.35;1.40;;;3.40;99.90;;;;;;5066479;28;20435;-68
2023/03/05 05:43:57;;;;;;;9.75;1.52;;;3.40;99.90;;;;;;5066991;28;20424;-69
2023/03/05 05:46:23;;;;;;;7.10;1.43;;;3.40;99.90;;;;;;5068201;28;20490;-68
2023/03/05 05:48:49;;;;;;;11.17;2.53;;;3.20;99.90;;;;;;5063426;28;20427;-70
2023/03/05 05:51:18;;;;;;;5.40;1.40;;;3.30;99.90;;;;;;5066185;28;20434;-69
2023/03/05 05:53:44;;;;;;;5.53;1.48;;;3.20;99.90;;;;;;5066545;28;20491;-68
2023/03/05 05:56:11;;;;;;;7.63;2.42;;;3.20;99.90;;;;;;5068075;28;20408;-68
2023/03/05 05:58:38;;;;;;;16.45;1.60;;;3.10;99.90;;;;;;5067767;28;20500;-69
2023/03/05 06:01:23;;;;;;;5.28;0.90;;;3.10;99.90;;;;;;5071516;28;20419;-68
2023/03/05 06:03:49;;;;;;;9.90;1.50;;;2.90;99.90;;;;;;5064593;28;20422;-70
2023/03/05 06:06:17;;;;;;;6.68;1.63;;;3.00;99.90;;;;;;5066348;28;20700;-69
2023/03/05 06:08:43;;;;;;;6.25;1.40;;;2.90;99.90;;;;;;5064044;28;20437;-68
2023/03/05 06:11:09;;;;;;;5.87;1.17;;;3.10;99.90;;;;;;5067480;28;20436;-68
2023/03/05 06:13:35;;;;;;;10.70;1.65;;;2.80;99.90;;;;;;5065443;28;20431;-68
2023/03/05 06:16:05;;;;;;;10.43;1.70;;;2.90;99.90;;;;;;5065511;28;20408;-69
2023/03/05 06:18:32;;;;;;;3.55;1.08;;;2.70;99.90;;;;;;5065590;28;20562;-68
2023/03/05 06:21:00;;;;;;;6.45;0.95;;;2.80;99.90;;;;;;5065430;28;21159;-67
2023/03/05 06:23:27;;;;;;;6.65;1.35;;;2.80;99.90;;;;;;5065015;28;20420;-68
2023/03/05 06:25:53;;;;;;;6.05;1.15;;;2.70;99.90;;;;;;5065215;28;20893;-69
2023/03/05 06:28:19;;;;;;;8.98;2.47;;;2.80;99.90;;;;;;5047105;28;20527;-68
2023/03/05 06:30:45;;;;;;;5.53;1.60;;;2.80;99.90;;;;;;5066508;28;20428;-66
2023/03/05 06:33:12;;;;;;;8.70;1.80;;;2.80;99.90;;;;;;5064738;28;20447;-69
2023/03/05 06:35:41;;;;;;;6.10;1.67;;;2.80;99.90;;;;;;5067390;28;20434;-69
2023/03/05 06:38:07;;;;;;;5.82;1.45;;;2.70;99.90;;;;;;5064736;28;20420;-68
2023/03/05 06:40:34;;;;;;;7.70;1.35;;;2.80;99.90;;;;;;5060725;28;20461;-68
2023/03/05 06:42:59;;;;;;;4.32;1.20;;;2.70;99.90;;;;;;5052153;28;20428;-68
2023/03/05 06:45:26;;;;;;;13.60;2.45;;;2.80;99.90;;;;;;5063245;28;20826;-69
2023/03/05 06:47:51;;;;;;;9.27;2.20;;;2.80;99.90;;;;;;5030459;28;20419;-69
2023/03/05 06:50:17;;;;;;;5.97;1.30;;;2.70;99.90;;;;;;5046819;28;20434;-69
2023/03/05 06:52:43;;;;;;;6.10;1.73;;;2.90;99.90;;;;;;5062966;28;20469;-69
2023/03/05 06:55:09;;;;;;;7.47;1.95;;;2.80;99.90;;;;;;5064627;28;20993;-68
2023/03/05 06:57:36;;;;;;;5.60;1.60;;;2.90;99.90;;;;;;5048181;28;20503;-68
2023/03/05 07:00:08;;;;;;;8.40;2.03;;;2.70;99.90;;;;;;5063465;28;20461;-68
2023/03/05 07:02:33;;;;;;;7.53;1.98;;;2.80;99.90;;;;;;5062333;28;20728;-68
2023/03/05 07:04:59;;;;;;;6.17;2.30;;;2.90;99.90;;;;;;5047398;28;20404;-67
2023/03/05 07:07:25;;;;;;;7.53;2.33;;;3.00;99.90;;;;;;5063666;28;21000;-69
2023/03/05 07:09:52;;;;;;;6.17;2.37;;;3.10;99.90;;;;;;5064867;28;20773;-68
2023/03/05 07:12:18;;;;;;;7.50;2.00;;;2.90;99.90;;;;;;5064672;28;20439;-70
2023/03/05 07:14:43;;;;;;;8.55;2.38;;;3.20;99.90;;;;;;5065009;28;20411;-69
2023/03/05 07:17:09;;;;;;;8.00;1.80;;;3.10;99.90;;;;;;5056772;28;20417;-69
2023/03/05 07:19:36;;;;;;;8.07;1.70;;;3.20;99.90;;;;;;5061713;28;20544;-69
2023/03/05 07:22:02;;;;;;;7.75;1.60;;;3.10;99.90;;;;;;5062844;28;20419;-69
2023/03/05 07:24:28;;;;;;;7.82;1.10;;;3.20;99.90;;;;;;5059002;28;20458;-68
2023/03/05 07:26:56;;;;;;;7.93;1.60;;;3.10;99.90;;;;;;5060283;28;20949;-68
2023/03/05 07:29:22;;;;;;;8.80;2.20;;;3.30;99.90;;;;;;5067006;28;20419;-68
2023/03/05 07:31:48;;;;;;;8.07;2.10;;;3.30;99.90;;;;;;5066478;28;20530;-69
2023/03/05 07:34:14;;;;;;;6.35;1.85;;;3.10;99.90;;;;;;5038796;28;20544;-69
2023/03/05 07:36:41;;;;;;;6.70;1.10;;;3.20;99.90;;;;;;5064659;28;20952;-68
2023/03/05 07:39:07;;;;;;;8.55;1.25;;;3.30;99.90;;;;;;5048175;28;20426;-68
2023/03/05 07:41:33;;;;;;;5.07;1.30;;;3.10;99.90;;;;;;5062583;28;20787;-68
2023/03/05 07:43:59;;;;;;;10.23;1.95;;;3.10;99.90;;;;;;5065396;28;20407;-68
2023/03/05 07:46:29;;;;;;;8.23;1.45;;;3.20;99.90;;;;;;5063226;28;20557;-68
2023/03/05 07:48:55;;;;;;;9.00;2.00;;;3.10;99.90;;;;;;5055568;28;20425;-69
2023/03/05 07:51:21;;;;;;;8.13;1.77;;;3.30;99.90;;;;;;5061677;28;20434;-68
2023/03/05 07:53:49;;;;;;;9.15;1.63;;;3.30;99.90;;;;;;5062627;28;20956;-68
2023/03/05 07:56:38;;;;;;;11.30;2.10;;;3.40;99.90;;;;;;5039552;28;20964;-69
2023/03/05 07:59:07;;;;;;;9.23;1.67;;;3.40;99.90;;;;;;5048085;28;21191;-68
2023/03/05 08:01:34;;;;;;;7.20;1.85;;;3.50;99.90;;;;;;5065447;28;20777;-69
2023/03/05 08:04:01;;;;;;;7.85;1.20;;;3.50;99.90;;;;;;5047922;28;20828;-69
2023/03/05 08:06:27;;;;;;;9.68;2.15;;;3.60;99.90;;;;;;5064986;28;20438;-68
2023/03/05 08:08:53;;;;;;;19.03;2.43;;;3.70;99.90;;;;;;5064172;28;20462;-69
2023/03/05 08:11:18;;;;;;;11.43;2.23;;;3.70;99.90;;;;;;5058880;28;20481;-68
2023/03/05 08:13:44;;;;;;;6.32;1.80;;;4.00;99.90;;;;;;5063729;28;20420;-68
2023/03/05 08:16:16;;;;;;;7.75;1.60;;;4.10;99.90;;;;;;5045330;28;20916;-68
2023/03/05 08:18:42;;;;;;;6.05;1.67;;;4.20;99.90;;;;;;5061673;28;20751;-68
2023/03/05 08:21:19;;;;;;;7.95;2.20;;;4.20;99.90;;;;;;5063845;28;20418;-69
2023/03/05 08:23:45;;;;;;;10.13;1.93;;;4.40;99.90;;;;;;5066371;28;20415;-68
2023/03/05 08:26:17;;;;;;;8.57;2.13;;;4.30;99.90;;;;;;5047137;28;20526;-68
2023/03/05 08:28:43;;;;;;;11.90;1.83;;;4.50;99.90;;;;;;5066135;28;20419;-69
2023/03/05 08:31:13;;;;;;;13.07;2.75;;;4.70;99.90;;;;;;5045645;28;20515;-67
2023/03/05 08:33:40;;;;;;;10.32;2.60;;;4.70;99.90;;;;;;5065522;28;20428;-69
2023/03/05 08:36:07;;;;;;;10.23;2.10;;;4.90;99.90;;;;;;5062336;28;20411;-69
2023/03/05 08:38:33;;;;;;;6.80;1.58;;;4.90;99.90;;;;;;5061669;28;20423;-68
2023/03/05 08:40:58;;;;;;;9.65;2.35;;;4.90;99.90;;;;;;5061727;28;20438;-69
2023/03/05 08:43:24;;;;;;;10.80;2.58;;;5.10;99.90;;;;;;5062805;28;20505;-69
2023/03/05 08:45:52;;;;;;;12.13;2.20;;;5.10;99.90;;;;;;5058036;28;20450;-70
2023/03/05 08:48:18;;;;;;;11.70;2.42;;;5.20;99.90;;;;;;5073986;28;20911;-68
2023/03/05 08:50:44;;;;;;;6.25;1.20;;;5.20;99.90;;;;;;5048988;28;20436;-68
2023/03/05 08:53:10;;;;;;;8.30;1.48;;;5.30;99.90;;;;;;5043704;28;20448;-67
2023/03/05 08:55:36;;;;;;;7.72;1.23;;;5.30;99.90;;;;;;5061312;28;20420;-68
2023/03/05 08:58:03;;;;;;;8.90;2.00;;;5.40;99.90;;;;;;5064392;28;20510;-68
2023/03/05 09:00:29;;;;;;;5.97;2.20;;;5.40;99.90;;;;;;5063468;28;20424;-68
2023/03/05 09:02:54;;;;;;;7.30;1.27;;;5.60;99.90;;;;;;5067050;28;20435;-68
2023/03/05 09:05:20;;;;;;;8.63;1.57;;;5.30;99.90;;;;;;5065105;28;20460;-69
2023/03/05 09:07:46;;;;;;;8.45;1.52;;;5.50;99.90;;;;;;5068822;28;20511;-68
2023/03/05 09:10:13;;;;;;;11.10;2.00;;;5.60;99.90;;;;;;5066192;28;20423;-69
2023/03/05 09:12:40;;;;;;;17.10;2.13;;;5.50;99.90;;;;;;5068589;28;20984;-68
2023/03/05 09:15:07;;;;;;;7.05;1.20;;;5.70;99.90;;;;;;5050310;28;20499;-69
2023/03/05 09:17:34;;;;;;;10.90;1.85;;;5.80;99.90;;;;;;5067270;28;20419;-68
2023/03/05 09:20:00;;;;;;;10.13;1.20;;;5.60;99.90;;;;;;5065985;28;20739;-68
2023/03/05 09:22:27;;;;;;;5.85;1.63;;;5.90;99.90;;;;;;5066537;28;20458;-67
2023/03/05 09:24:52;;;;;;;8.55;1.35;;;5.90;99.90;;;;;;5067151;28;20750;-68
2023/03/05 09:27:18;;;;;;;6.77;1.83;;;5.90;99.90;;;;;;5066307;28;20431;-69
2023/03/05 09:29:44;;;;;;;7.57;1.57;;;6.10;99.90;;;;;;5069581;28;20395;-69
2023/03/05 09:32:09;;;;;;;5.80;1.10;;;6.10;99.90;;;;;;5065459;28;20431;-70
2023/03/05 09:34:35;;;;;;;11.43;2.20;;;6.20;99.90;;;;;;5063313;28;20433;-68
2023/03/05 09:37:02;;;;;;;9.00;2.30;;;6.20;99.90;;;;;;5065552;28;20435;-68
2023/03/05 09:39:28;;;;;;;6.45;1.38;;;6.10;99.90;;;;;;5068706;28;20404;-68
2023/03/05 09:42:29;;;;;;;8.00;1.75;;;6.10;99.90;;;;;;5065066;28;20419;-66
2023/03/05 09:45:06;;;;;;;7.83;1.40;;;6.00;99.90;;;;;;5060076;28;21022;-67
2023/03/05 09:47:41;;;;;;;10.48;2.03;;;6.00;99.90;;;;;;5062476;28;20929;-66
2023/03/05 09:50:06;;;;;;;3.40;0.80;;;5.80;99.90;;;;;;5066240;28;20419;-68
2023/03/05 09:52:41;;;;;;;4.38;0.70;;;5.10;99.90;;;;;;5062844;28;20427;-68
2023/03/05 09:55:22;;;;;;;2.38;0.40;;;4.90;99.90;;;;;;5066040;28;20430;-67
2023/03/05 09:57:51;;;;;;;2.85;0.50;;;5.20;99.90;;;;;;5062791;28;20453;-68
2023/03/05 10:00:26;;;;;;;5.95;1.00;;;5.00;99.90;;;;;;5050126;28;20747;-67
2023/03/05 10:02:57;;;;;;;3.63;0.93;;;5.20;99.90;;;;;;5048613;28;20499;-67
2023/03/05 10:05:48;;;;;;;5.70;0.80;;;5.30;99.90;;;;;;5048388;28;20434;-67
2023/03/05 10:08:16;;;;;;;4.63;0.80;;;5.50;99.90;;;;;;5063458;28;20465;-68
2023/03/05 10:10:48;;;;;;;7.28;1.48;;;5.60;99.90;;;;;;5067399;28;20765;-68
2023/03/05 10:13:37;;;;;;;13.10;1.35;;;5.50;99.90;;;;;;5066064;28;20471;-68
2023/03/05 10:16:28;;;;;;;7.18;1.42;;;5.90;99.90;;;;;;5068231;28;20431;-68
2023/03/05 10:19:06;;;;;;;7.75;2.10;;;6.10;99.90;;;;;;5067509;28;20906;-67
2023/03/05 10:22:03;;;;;;;7.55;1.00;;;6.30;99.90;;;;;;5064647;28;20420;-68
2023/03/05 10:24:50;;;;;;;6.10;1.48;;;6.60;99.90;;;;;;5033834;28;20414;-69
2023/03/05 10:27:20;;;;;;;4.65;0.93;;;6.70;99.90;;;;;;5052534;28;20436;-68
2023/03/05 10:30:03;;;;;;;4.70;1.17;;;6.50;99.90;;;;;;5050297;28;20461;-67
2023/03/05 10:33:08;;;;;;;7.88;2.13;;;6.40;99.90;;;;;;5065003;28;21003;-68
2023/03/05 10:35:55;;;;;;;5.28;0.90;;;6.30;99.90;;;;;;5055398;28;20455;-69
2023/03/05 10:38:44;;;;;;;7.45;1.63;;;6.20;99.90;;;;;;5064511;28;20436;-69
2023/03/05 10:41:34;;;;;;;6.93;1.17;;;6.20;99.90;;;;;;5065915;28;20421;-68
2023/03/05 10:44:05;;;;;;;7.03;1.42;;;6.40;99.90;;;;;;5065275;28;20407;-67
2023/03/05 10:46:35;;;;;;;6.55;1.30;;;6.50;99.90;;;;;;5049106;28;20469;-68
2023/03/05 10:49:25;;;;;;;4.72;1.08;;;6.90;99.90;;;;;;5063317;28;20442;-67
2023/03/05 10:52:08;;;;;;;6.18;0.88;;;7.00;99.90;;;;;;5053097;28;20455;-68
2023/03/05 10:54:34;;;;;;;6.60;1.08;;;7.00;99.90;;;;;;5048303;28;21012;-68
2023/03/05 10:57:24;;;;;;;6.28;1.70;;;7.00;99.90;;;;;;5065083;28;20481;-67
2023/03/05 10:59:59;;;;;;;2.83;0.50;;;7.10;99.90;;;;;;5065065;28;20419;-67
2023/03/05 11:02:25;;;;;;;4.20;1.20;;;7.10;99.90;;;;;;5046772;28;20405;-67
2023/03/05 11:04:52;;;;;;;8.65;1.90;;;7.30;99.90;;;;;;5060999;28;20421;-69
2023/03/05 11:07:17;;;;;;;5.38;1.70;;;7.30;99.90;;;;;;5064885;28;20966;-68
2023/03/05 11:10:14;;;;;;;4.53;1.45;;;7.30;99.90;;;;;;5066216;28;20515;-67
2023/03/05 11:12:41;;;;;;;8.35;1.42;;;7.30;99.90;;;;;;5067158;28;20428;-68
2023/03/05 11:15:12;;;;;;;7.13;0.73;;;7.10;99.90;;;;;;5065657;28;20404;-67
2023/03/05 11:18:17;;;;;;;5.35;1.13;;;6.80;99.90;;;;;;5066403;28;20470;-67
2023/03/05 11:20:43;;;;;;;6.45;1.50;;;6.70;99.90;;;;;;5044517;28;20441;-67
2023/03/05 11:23:16;;;;;;;5.25;1.30;;;6.90;99.90;;;;;;5044968;28;20444;-68
2023/03/05 11:26:01;;;;;;;6.32;1.38;;;6.90;99.90;;;;;;5064904;28;20423;-68
2023/03/05 11:28:39;;;;;;;9.20;1.85;;;7.00;99.90;;;;;;5066170;28;20407;-69
2023/03/05 11:31:17;;;;;;;6.53;1.80;;;7.00;99.90;;;;;;5066432;28;20403;-67
2023/03/05 11:34:02;;;;;;;5.72;1.27;;;7.00;99.90;;;;;;5047525;28;20451;-67
2023/03/05 11:36:32;;;;;;;7.45;1.77;;;7.20;99.90;;;;;;5064323;28;20465;-67
2023/03/05 11:39:06;;;;;;;3.45;1.23;;;7.60;99.90;;;;;;5059496;28;20423;-68
2023/03/05 11:41:52;;;;;;;4.20;0.70;;;7.80;99.90;;;;;;5047582;28;20411;-69
2023/03/05 11:44:38;;;;;;;5.03;0.73;;;7.30;99.90;;;;;;5030899;28;20419;-68
2023/03/05 11:47:17;;;;;;;4.73;1.10;;;7.30;99.90;;;;;;5065917;28;20408;-69
2023/03/05 11:49:46;;;;;;;7.83;0.70;;;7.50;99.90;;;;;;5063609;28;20399;-69
2023/03/05 11:52:23;;;;;;;5.95;1.30;;;7.60;99.90;;;;;;5064688;28;20999;-68
2023/03/05 11:55:15;;;;;;;3.42;0.82;;;7.70;99.90;;;;;;5063414;28;21186;-68
2023/03/05 11:57:54;;;;;;;6.60;0.90;;;7.60;99.90;;;;;;5064514;28;20416;-67
2023/03/05 12:00:29;;;;;;;2.72;0.50;;;7.70;99.90;;;;;;5059968;28;20410;-68
2023/03/05 12:02:57;;;;;;;3.13;0.70;;;7.60;99.90;;;;;;5011986;28;20456;-68
2023/03/05 12:05:23;;;;;;;4.60;0.90;;;7.60;99.90;;;;;;5065060;28;20406;-68
2023/03/05 12:07:54;;;;;;;3.33;0.80;;;7.60;99.90;;;;;;5064804;28;20504;-68
2023/03/05 12:10:23;;;;;;;5.28;1.25;;;7.40;99.90;;;;;;5065970;28;20404;-68
2023/03/05 12:13:06;;;;;;;4.25;0.82;;;7.30;99.90;;;;;;5064430;28;20435;-67
2023/03/05 12:16:04;;;;;;;3.08;0.85;;;7.40;99.90;;;;;;5065677;28;20817;-67
2023/03/05 12:18:44;;;;;;;4.90;0.60;;;7.40;99.90;;;;;;5064127;28;20431;-68
2023/03/05 12:21:28;;;;;;;6.32;1.23;;;7.30;99.90;;;;;;5063447;28;20491;-68
2023/03/05 12:24:00;;;;;;;4.40;0.90;;;7.30;99.90;;;;;;5064267;28;20434;-68
2023/03/05 12:27:08;;;;;;;5.32;0.82;;;7.30;99.90;;;;;;5065974;28;20400;-68
2023/03/05 12:29:51;;;;;;;4.05;0.75;;;7.40;99.90;;;;;;5037615;28;20494;-67
2023/03/05 12:32:30;;;;;;;4.88;0.70;;;7.30;99.90;;;;;;5066616;28;20427;-69
2023/03/05 12:34:59;;;;;;;3.40;0.75;;;7.20;99.90;;;;;;5049478;28;20426;-71
2023/03/05 12:37:26;;;;;;;4.40;1.10;;;7.20;99.90;;;;;;5067131;28;20419;-68
2023/03/05 12:40:07;;;;;;;3.28;0.75;;;7.20;99.90;;;;;;5067376;28;20967;-69
2023/03/05 12:42:33;;;;;;;5.68;1.67;;;7.10;99.90;;;;;;5067251;28;20396;-68
2023/03/05 12:45:14;;;;;;;5.70;0.82;;;7.00;99.90;;;;;;5051167;28;20850;-70
2023/03/05 12:47:45;;;;;;;4.88;1.27;;;7.10;99.90;;;;;;5068156;28;20407;-68
2023/03/05 12:50:26;;;;;;;4.23;0.97;;;7.10;99.90;;;;;;5067527;28;20939;-70
2023/03/05 12:53:18;;;;;;;6.10;1.48;;;7.20;99.90;;;;;;5067997;28;20458;-70
2023/03/05 12:55:46;;;;;;;4.93;0.73;;;7.20;99.90;;;;;;5069677;28;20475;-72
2023/03/05 12:58:16;;;;;;;4.38;0.63;;;7.50;99.90;;;;;;5069457;28;20561;-69
2023/03/05 13:01:03;;;;;;;3.75;0.90;;;7.60;99.90;;;;;;5068109;28;20448;-68
2023/03/05 13:03:38;;;;;;;4.10;0.90;;;7.60;99.90;;;;;;5066399;28;20430;-68
2023/03/05 13:06:05;;;;;;;6.00;1.83;;;7.60;99.90;;;;;;5067238;28;20427;-70
2023/03/05 13:08:36;;;;;;;4.20;0.63;;;7.70;99.90;;;;;;5067617;28;20806;-68